Portada
METAR-TAF:

METAR-TAF

Aeroports :

Büchel, Alemanya

latitud: 50-10N, longitud: 007-04E, altitud: 478 m

Observació

L'informe es va fer fa 56 minuts, a les 21:20 UTC
Vent 6 kt del Nord
Temperatura 12°C
Humitat 71%
Pressió 1020 hPa
Visibilitat 10 km o més

METAR: ETSB 152120Z AUTO 01006KT 9999 // ////// 12/07 Q1020 ///

Hora: 00:16 (22:16 UTC)

Pronòstic

L'informe es va fer fa 9 hores i 6 minuts, a les 13:10 UTC
Pronòstic vàlid del 15 a les 14 UTC al 15 a les 23 UTC
Vent 8 kt del Nord
Visibilitat 10 km o més
Cel ennuvolat a una alçada de 2000 ft
Evolucionant progressivament
l' 15 a les 14 UTC al 15 a les 15 UTC
Vent 10 kt del Nord
Visibilitat: 1600 m
Cel ennuvolat a una alçada de 3000 ft

TAF: ETSB 151310Z 1514/1523 35008KT 9999 NSW BKN020 BECMG 1514/1515 36010KT 9999 NSW BKN030 CANCEL 1600 BY ETGL

Observacions i pronòstics meteorològics de més de 4000 aeroports (METAR i TAF).

Les estacions disponibles són els punts grocs i vermells al mapa.

Posi el ratolí al punt desitjat per veure el nom de l'estació.

Feu clic per veure les observacions i els pronòstics meteorològics.

Per canviar el mapa: feu clic els botons verds amb una creu de color negre per apropar; al botó verd amb un guió per allunyar la imatge; o en les fletxes verdes per a mapes adjacents.


METAR-TAF: